sensor_id;sensor_type;location;lat;lon;timestamp;temperature;humidity
54192;DHT22;40101;53.002;6.488;2023-04-16T00:02:28;8.70;99.90
54192;DHT22;40101;53.002;6.488;2023-04-16T00:05:12;8.70;99.90
54192;DHT22;40101;53.002;6.488;2023-04-16T00:07:46;8.70;99.90
54192;DHT22;40101;53.002;6.488;2023-04-16T00:10:16;8.70;99.90
54192;DHT22;40101;53.002;6.488;2023-04-16T00:12:57;8.70;99.90
54192;DHT22;40101;53.002;6.488;2023-04-16T00:16:02;8.70;99.90
54192;DHT22;40101;53.002;6.488;2023-04-16T00:18:54;8.70;99.90
54192;DHT22;40101;53.002;6.488;2023-04-16T00:24:34;8.70;99.90
54192;DHT22;40101;53.002;6.488;2023-04-16T00:27:11;8.70;99.90
54192;DHT22;40101;53.002;6.488;2023-04-16T00:32:10;8.70;99.90
54192;DHT22;40101;53.002;6.488;2023-04-16T00:34:36;8.70;99.90
54192;DHT22;40101;53.002;6.488;2023-04-16T00:37:02;8.70;99.90
54192;DHT22;40101;53.002;6.488;2023-04-16T00:39:27;8.70;99.90
54192;DHT22;40101;53.002;6.488;2023-04-16T00:41:53;8.70;99.90
54192;DHT22;40101;53.002;6.488;2023-04-16T00:44:19;8.80;99.90
54192;DHT22;40101;53.002;6.488;2023-04-16T00:46:45;8.70;99.90
54192;DHT22;40101;53.002;6.488;2023-04-16T00:49:11;8.70;99.90
54192;DHT22;40101;53.002;6.488;2023-04-16T00:51:37;8.70;99.90
54192;DHT22;40101;53.002;6.488;2023-04-16T00:54:03;8.70;99.90
54192;DHT22;40101;53.002;6.488;2023-04-16T00:56:29;8.80;99.90
54192;DHT22;40101;53.002;6.488;2023-04-16T00:58:55;8.70;99.90
54192;DHT22;40101;53.002;6.488;2023-04-16T01:01:21;8.70;99.90
54192;DHT22;40101;53.002;6.488;2023-04-16T01:03:48;8.70;99.90
54192;DHT22;40101;53.002;6.488;2023-04-16T01:06:15;8.80;99.90
54192;DHT22;40101;53.002;6.488;2023-04-16T01:08:41;8.70;99.90
54192;DHT22;40101;53.002;6.488;2023-04-16T01:11:08;8.70;99.90
54192;DHT22;40101;53.002;6.488;2023-04-16T01:13:34;8.80;99.90
54192;DHT22;40101;53.002;6.488;2023-04-16T01:16:07;8.70;99.90
54192;DHT22;40101;53.002;6.488;2023-04-16T01:18:33;8.70;99.90
54192;DHT22;40101;53.002;6.488;2023-04-16T01:20:59;8.70;99.90
54192;DHT22;40101;53.002;6.488;2023-04-16T01:23:25;8.70;99.90
54192;DHT22;40101;53.002;6.488;2023-04-16T01:25:50;8.70;99.90
54192;DHT22;40101;53.002;6.488;2023-04-16T01:28:17;8.80;99.90
54192;DHT22;40101;53.002;6.488;2023-04-16T01:30:43;8.70;99.90
54192;DHT22;40101;53.002;6.488;2023-04-16T01:33:12;8.70;99.90
54192;DHT22;40101;53.002;6.488;2023-04-16T01:35:38;8.70;99.90
54192;DHT22;40101;53.002;6.488;2023-04-16T01:38:06;8.70;99.90
54192;DHT22;40101;53.002;6.488;2023-04-16T01:40:33;8.70;99.90
54192;DHT22;40101;53.002;6.488;2023-04-16T01:42:58;8.70;99.90
54192;DHT22;40101;53.002;6.488;2023-04-16T01:45:24;8.70;99.90
54192;DHT22;40101;53.002;6.488;2023-04-16T01:47:50;8.70;99.90
54192;DHT22;40101;53.002;6.488;2023-04-16T01:50:17;8.70;99.90
54192;DHT22;40101;53.002;6.488;2023-04-16T01:52:43;8.60;99.90
54192;DHT22;40101;53.002;6.488;2023-04-16T01:55:09;8.60;99.90
54192;DHT22;40101;53.002;6.488;2023-04-16T01:57:35;8.60;99.90
54192;DHT22;40101;53.002;6.488;2023-04-16T02:00:01;8.60;99.90
54192;DHT22;40101;53.002;6.488;2023-04-16T02:02:26;8.60;99.90
54192;DHT22;40101;53.002;6.488;2023-04-16T02:04:54;8.60;99.90
54192;DHT22;40101;53.002;6.488;2023-04-16T02:07:20;8.60;99.90
54192;DHT22;40101;53.002;6.488;2023-04-16T02:09:46;8.60;99.90
54192;DHT22;40101;53.002;6.488;2023-04-16T02:12:12;8.60;99.90
54192;DHT22;40101;53.002;6.488;2023-04-16T02:14:37;8.60;99.90
54192;DHT22;40101;53.002;6.488;2023-04-16T02:17:03;8.60;99.90
54192;DHT22;40101;53.002;6.488;2023-04-16T02:19:29;8.60;99.90
54192;DHT22;40101;53.002;6.488;2023-04-16T02:21:55;8.60;99.90
54192;DHT22;40101;53.002;6.488;2023-04-16T02:24:20;8.60;99.90
54192;DHT22;40101;53.002;6.488;2023-04-16T02:26:46;8.60;99.90
54192;DHT22;40101;53.002;6.488;2023-04-16T02:29:12;8.50;99.90
54192;DHT22;40101;53.002;6.488;2023-04-16T02:31:38;8.50;99.90
54192;DHT22;40101;53.002;6.488;2023-04-16T02:34:04;8.50;99.90
54192;DHT22;40101;53.002;6.488;2023-04-16T02:36:30;8.50;99.90
54192;DHT22;40101;53.002;6.488;2023-04-16T02:38:57;8.50;99.90
54192;DHT22;40101;53.002;6.488;2023-04-16T02:41:22;8.50;99.90
54192;DHT22;40101;53.002;6.488;2023-04-16T02:43:48;8.50;99.90
54192;DHT22;40101;53.002;6.488;2023-04-16T02:46:14;8.50;99.90
54192;DHT22;40101;53.002;6.488;2023-04-16T02:48:40;8.50;99.90
54192;DHT22;40101;53.002;6.488;2023-04-16T02:51:06;8.50;99.90
54192;DHT22;40101;53.002;6.488;2023-04-16T02:53:31;8.50;99.90
54192;DHT22;40101;53.002;6.488;2023-04-16T02:55:57;8.40;99.90
54192;DHT22;40101;53.002;6.488;2023-04-16T02:58:24;8.50;99.90
54192;DHT22;40101;53.002;6.488;2023-04-16T03:00:51;8.50;99.90
54192;DHT22;40101;53.002;6.488;2023-04-16T03:03:17;8.50;99.90
54192;DHT22;40101;53.002;6.488;2023-04-16T03:05:42;8.50;99.90
54192;DHT22;40101;53.002;6.488;2023-04-16T03:08:09;8.50;99.90
54192;DHT22;40101;53.002;6.488;2023-04-16T03:10:35;8.50;99.90
54192;DHT22;40101;53.002;6.488;2023-04-16T03:13:01;8.50;99.90
54192;DHT22;40101;53.002;6.488;2023-04-16T03:15:26;8.50;99.90
54192;DHT22;40101;53.002;6.488;2023-04-16T03:17:53;8.50;99.90
54192;DHT22;40101;53.002;6.488;2023-04-16T03:20:19;8.40;99.90
54192;DHT22;40101;53.002;6.488;2023-04-16T03:22:45;8.50;99.90
54192;DHT22;40101;53.002;6.488;2023-04-16T03:25:11;8.40;99.90
54192;DHT22;40101;53.002;6.488;2023-04-16T03:27:37;8.50;99.90
54192;DHT22;40101;53.002;6.488;2023-04-16T03:30:07;8.50;99.90
54192;DHT22;40101;53.002;6.488;2023-04-16T03:32:33;8.40;99.90
54192;DHT22;40101;53.002;6.488;2023-04-16T03:34:59;8.40;99.90
54192;DHT22;40101;53.002;6.488;2023-04-16T03:37:24;8.40;99.90
54192;DHT22;40101;53.002;6.488;2023-04-16T03:39:50;8.40;99.90
54192;DHT22;40101;53.002;6.488;2023-04-16T03:42:16;8.40;99.90
54192;DHT22;40101;53.002;6.488;2023-04-16T03:44:41;8.40;99.90
54192;DHT22;40101;53.002;6.488;2023-04-16T03:47:07;8.40;99.90
54192;DHT22;40101;53.002;6.488;2023-04-16T03:49:33;8.40;99.90
54192;DHT22;40101;53.002;6.488;2023-04-16T03:51:58;8.40;99.90
54192;DHT22;40101;53.002;6.488;2023-04-16T03:54:24;8.40;99.90
54192;DHT22;40101;53.002;6.488;2023-04-16T03:56:50;8.40;99.90
54192;DHT22;40101;53.002;6.488;2023-04-16T03:59:17;8.40;99.90
54192;DHT22;40101;53.002;6.488;2023-04-16T04:01:42;8.40;99.90
54192;DHT22;40101;53.002;6.488;2023-04-16T04:04:08;8.40;99.90
54192;DHT22;40101;53.002;6.488;2023-04-16T04:06:34;8.40;99.90
54192;DHT22;40101;53.002;6.488;2023-04-16T04:09:00;8.40;99.90
54192;DHT22;40101;53.002;6.488;2023-04-16T04:11:26;8.40;99.90
54192;DHT22;40101;53.002;6.488;2023-04-16T04:13:51;8.40;99.90
54192;DHT22;40101;53.002;6.488;2023-04-16T04:16:17;8.40;99.90
54192;DHT22;40101;53.002;6.488;2023-04-16T04:18:42;8.30;99.90
54192;DHT22;40101;53.002;6.488;2023-04-16T04:21:08;8.30;99.90
54192;DHT22;40101;53.002;6.488;2023-04-16T04:23:35;8.30;99.90
54192;DHT22;40101;53.002;6.488;2023-04-16T04:26:01;8.30;99.90
54192;DHT22;40101;53.002;6.488;2023-04-16T04:28:31;8.30;99.90
54192;DHT22;40101;53.002;6.488;2023-04-16T04:30:58;8.30;99.90
54192;DHT22;40101;53.002;6.488;2023-04-16T04:33:24;8.20;99.90
54192;DHT22;40101;53.002;6.488;2023-04-16T04:35:50;8.30;99.90
54192;DHT22;40101;53.002;6.488;2023-04-16T04:38:16;8.20;99.90
54192;DHT22;40101;53.002;6.488;2023-04-16T04:40:44;8.20;99.90
54192;DHT22;40101;53.002;6.488;2023-04-16T04:43:11;8.30;99.90
54192;DHT22;40101;53.002;6.488;2023-04-16T04:45:36;8.20;99.90
54192;DHT22;40101;53.002;6.488;2023-04-16T04:48:02;8.20;99.90
54192;DHT22;40101;53.002;6.488;2023-04-16T04:50:28;8.20;99.90
54192;DHT22;40101;53.002;6.488;2023-04-16T04:52:53;8.20;99.90
54192;DHT22;40101;53.002;6.488;2023-04-16T04:55:19;8.30;99.90
54192;DHT22;40101;53.002;6.488;2023-04-16T04:57:45;8.20;99.90
54192;DHT22;40101;53.002;6.488;2023-04-16T05:00:11;8.20;99.90
54192;DHT22;40101;53.002;6.488;2023-04-16T05:02:36;8.30;99.90
54192;DHT22;40101;53.002;6.488;2023-04-16T05:05:03;8.30;99.90
54192;DHT22;40101;53.002;6.488;2023-04-16T05:07:29;8.30;99.90
54192;DHT22;40101;53.002;6.488;2023-04-16T05:09:55;8.30;99.90
54192;DHT22;40101;53.002;6.488;2023-04-16T05:12:21;8.30;99.90
54192;DHT22;40101;53.002;6.488;2023-04-16T05:14:46;8.30;99.90
54192;DHT22;40101;53.002;6.488;2023-04-16T05:17:12;8.30;99.90
54192;DHT22;40101;53.002;6.488;2023-04-16T05:19:37;8.30;99.90
54192;DHT22;40101;53.002;6.488;2023-04-16T05:22:03;8.30;99.90
54192;DHT22;40101;53.002;6.488;2023-04-16T05:24:29;8.30;99.90
54192;DHT22;40101;53.002;6.488;2023-04-16T05:26:55;8.30;99.90
54192;DHT22;40101;53.002;6.488;2023-04-16T05:29:21;8.40;99.90
54192;DHT22;40101;53.002;6.488;2023-04-16T05:31:47;8.30;99.90
54192;DHT22;40101;53.002;6.488;2023-04-16T05:34:13;8.40;99.90
54192;DHT22;40101;53.002;6.488;2023-04-16T05:36:38;8.40;99.90
54192;DHT22;40101;53.002;6.488;2023-04-16T05:39:04;8.40;99.90
54192;DHT22;40101;53.002;6.488;2023-04-16T05:41:30;8.40;99.90
54192;DHT22;40101;53.002;6.488;2023-04-16T05:43:56;8.40;99.90
54192;DHT22;40101;53.002;6.488;2023-04-16T05:46:21;8.40;99.90
54192;DHT22;40101;53.002;6.488;2023-04-16T05:48:47;8.40;99.90
54192;DHT22;40101;53.002;6.488;2023-04-16T05:51:13;8.30;99.90
54192;DHT22;40101;53.002;6.488;2023-04-16T05:53:38;8.40;99.90
54192;DHT22;40101;53.002;6.488;2023-04-16T05:56:04;8.40;99.90
54192;DHT22;40101;53.002;6.488;2023-04-16T05:58:30;8.50;99.90
54192;DHT22;40101;53.002;6.488;2023-04-16T06:00:55;8.50;99.90
54192;DHT22;40101;53.002;6.488;2023-04-16T06:03:21;8.60;99.90
54192;DHT22;40101;53.002;6.488;2023-04-16T06:05:47;8.70;99.90
54192;DHT22;40101;53.002;6.488;2023-04-16T06:08:12;8.70;99.90
54192;DHT22;40101;53.002;6.488;2023-04-16T06:10:38;8.70;99.90
54192;DHT22;40101;53.002;6.488;2023-04-16T06:13:04;8.80;99.90
54192;DHT22;40101;53.002;6.488;2023-04-16T06:15:29;8.80;99.90
54192;DHT22;40101;53.002;6.488;2023-04-16T06:17:55;8.80;99.90
54192;DHT22;40101;53.002;6.488;2023-04-16T06:20:21;8.80;99.90
54192;DHT22;40101;53.002;6.488;2023-04-16T06:22:47;8.80;99.90
54192;DHT22;40101;53.002;6.488;2023-04-16T06:25:12;8.90;99.90
54192;DHT22;40101;53.002;6.488;2023-04-16T06:27:38;8.90;99.90
54192;DHT22;40101;53.002;6.488;2023-04-16T06:30:04;9.00;99.90
54192;DHT22;40101;53.002;6.488;2023-04-16T06:32:30;9.10;99.90
54192;DHT22;40101;53.002;6.488;2023-04-16T06:34:57;9.10;99.90
54192;DHT22;40101;53.002;6.488;2023-04-16T06:37:23;9.20;99.90
54192;DHT22;40101;53.002;6.488;2023-04-16T06:39:48;9.30;99.90
54192;DHT22;40101;53.002;6.488;2023-04-16T06:42:14;9.30;99.90
54192;DHT22;40101;53.002;6.488;2023-04-16T06:44:40;9.40;99.90
54192;DHT22;40101;53.002;6.488;2023-04-16T06:47:05;9.40;99.90
54192;DHT22;40101;53.002;6.488;2023-04-16T06:49:31;9.50;99.90
54192;DHT22;40101;53.002;6.488;2023-04-16T06:51:57;9.50;99.90
54192;DHT22;40101;53.002;6.488;2023-04-16T06:54:22;9.50;99.90
54192;DHT22;40101;53.002;6.488;2023-04-16T06:56:48;9.60;99.90
54192;DHT22;40101;53.002;6.488;2023-04-16T06:59:14;9.70;99.90
54192;DHT22;40101;53.002;6.488;2023-04-16T07:01:40;9.80;99.90
54192;DHT22;40101;53.002;6.488;2023-04-16T07:04:05;10.00;99.90
54192;DHT22;40101;53.002;6.488;2023-04-16T07:06:31;10.00;99.90
54192;DHT22;40101;53.002;6.488;2023-04-16T07:08:57;10.00;99.90
54192;DHT22;40101;53.002;6.488;2023-04-16T07:11:22;10.00;99.90
54192;DHT22;40101;53.002;6.488;2023-04-16T07:13:48;10.00;99.90
54192;DHT22;40101;53.002;6.488;2023-04-16T07:16:16;10.00;99.90
54192;DHT22;40101;53.002;6.488;2023-04-16T07:18:42;9.90;99.90
54192;DHT22;40101;53.002;6.488;2023-04-16T07:21:08;9.90;99.90
54192;DHT22;40101;53.002;6.488;2023-04-16T07:23:33;9.90;99.90
54192;DHT22;40101;53.002;6.488;2023-04-16T07:25:59;9.90;99.90
54192;DHT22;40101;53.002;6.488;2023-04-16T07:28:25;9.90;99.90
54192;DHT22;40101;53.002;6.488;2023-04-16T07:30:50;9.80;99.90
54192;DHT22;40101;53.002;6.488;2023-04-16T07:33:16;9.90;99.90
54192;DHT22;40101;53.002;6.488;2023-04-16T07:35:42;9.90;99.90
54192;DHT22;40101;53.002;6.488;2023-04-16T07:38:08;10.00;99.90
54192;DHT22;40101;53.002;6.488;2023-04-16T07:40:35;10.10;99.90
54192;DHT22;40101;53.002;6.488;2023-04-16T07:43:01;10.20;99.90
54192;DHT22;40101;53.002;6.488;2023-04-16T07:45:27;10.30;99.90
54192;DHT22;40101;53.002;6.488;2023-04-16T07:47:53;10.30;99.90
54192;DHT22;40101;53.002;6.488;2023-04-16T07:50:18;10.50;99.90
54192;DHT22;40101;53.002;6.488;2023-04-16T07:52:45;10.60;99.90
54192;DHT22;40101;53.002;6.488;2023-04-16T07:55:11;10.70;99.90
54192;DHT22;40101;53.002;6.488;2023-04-16T07:57:36;10.70;99.90
54192;DHT22;40101;53.002;6.488;2023-04-16T08:00:03;10.70;99.90
54192;DHT22;40101;53.002;6.488;2023-04-16T08:02:31;10.70;99.90
54192;DHT22;40101;53.002;6.488;2023-04-16T08:04:57;10.60;99.90
54192;DHT22;40101;53.002;6.488;2023-04-16T08:07:23;10.50;99.90
54192;DHT22;40101;53.002;6.488;2023-04-16T08:09:51;10.50;99.90
54192;DHT22;40101;53.002;6.488;2023-04-16T08:12:17;10.50;99.90
54192;DHT22;40101;53.002;6.488;2023-04-16T08:14:44;10.50;99.90
54192;DHT22;40101;53.002;6.488;2023-04-16T08:17:16;10.70;99.90
54192;DHT22;40101;53.002;6.488;2023-04-16T08:19:45;10.80;99.90
54192;DHT22;40101;53.002;6.488;2023-04-16T08:22:11;11.00;99.90
54192;DHT22;40101;53.002;6.488;2023-04-16T08:24:44;11.40;99.90
54192;DHT22;40101;53.002;6.488;2023-04-16T08:27:17;11.50;99.90
54192;DHT22;40101;53.002;6.488;2023-04-16T08:46:18;14.50;99.90
54192;DHT22;40101;53.002;6.488;2023-04-16T08:49:40;14.30;99.90
54192;DHT22;40101;53.002;6.488;2023-04-16T08:52:39;14.60;99.90
54192;DHT22;40101;53.002;6.488;2023-04-16T09:02:41;16.60;99.90
54192;DHT22;40101;53.002;6.488;2023-04-16T09:05:33;16.40;99.90
54192;DHT22;40101;53.002;6.488;2023-04-16T09:08:33;16.00;99.90
54192;DHT22;40101;53.002;6.488;2023-04-16T09:11:33;15.80;99.90
54192;DHT22;40101;53.002;6.488;2023-04-16T09:14:30;15.70;99.90
54192;DHT22;40101;53.002;6.488;2023-04-16T09:17:16;15.60;99.90
54192;DHT22;40101;53.002;6.488;2023-04-16T09:19:43;15.70;99.90
54192;DHT22;40101;53.002;6.488;2023-04-16T09:22:54;15.70;99.90
54192;DHT22;40101;53.002;6.488;2023-04-16T09:25:45;15.60;99.90
54192;DHT22;40101;53.002;6.488;2023-04-16T09:28:51;15.50;99.90
54192;DHT22;40101;53.002;6.488;2023-04-16T09:31:22;15.50;99.90
54192;DHT22;40101;53.002;6.488;2023-04-16T09:37:40;15.50;99.90
54192;DHT22;40101;53.002;6.488;2023-04-16T09:47:24;15.30;99.90
54192;DHT22;40101;53.002;6.488;2023-04-16T09:50:25;15.30;99.90
54192;DHT22;40101;53.002;6.488;2023-04-16T09:52:55;15.30;99.90
54192;DHT22;40101;53.002;6.488;2023-04-16T10:03:12;16.00;99.90
54192;DHT22;40101;53.002;6.488;2023-04-16T10:13:38;17.10;99.90
54192;DHT22;40101;53.002;6.488;2023-04-16T10:16:43;16.90;99.90
54192;DHT22;40101;53.002;6.488;2023-04-16T10:25:15;17.30;99.90
54192;DHT22;40101;53.002;6.488;2023-04-16T10:27:45;17.40;99.90
54192;DHT22;40101;53.002;6.488;2023-04-16T10:30:46;17.50;99.90
54192;DHT22;40101;53.002;6.488;2023-04-16T10:33:49;17.50;99.90
54192;DHT22;40101;53.002;6.488;2023-04-16T10:36:52;17.40;99.90
54192;DHT22;40101;53.002;6.488;2023-04-16T10:39:40;17.40;99.90
54192;DHT22;40101;53.002;6.488;2023-04-16T10:42:52;17.50;99.90
54192;DHT22;40101;53.002;6.488;2023-04-16T10:52:08;17.70;99.90
54192;DHT22;40101;53.002;6.488;2023-04-16T10:55:11;17.60;99.90
54192;DHT22;40101;53.002;6.488;2023-04-16T11:01:45;17.40;99.90
54192;DHT22;40101;53.002;6.488;2023-04-16T11:04:56;17.30;99.90
54192;DHT22;40101;53.002;6.488;2023-04-16T11:07:46;17.20;99.90
54192;DHT22;40101;53.002;6.488;2023-04-16T11:13:53;17.20;99.90
54192;DHT22;40101;53.002;6.488;2023-04-16T11:16:42;17.10;99.90
54192;DHT22;40101;53.002;6.488;2023-04-16T11:19:31;17.10;99.90
54192;DHT22;40101;53.002;6.488;2023-04-16T11:22:11;17.10;99.90
54192;DHT22;40101;53.002;6.488;2023-04-16T11:24:56;17.00;99.90
54192;DHT22;40101;53.002;6.488;2023-04-16T11:27:55;17.10;99.90
54192;DHT22;40101;53.002;6.488;2023-04-16T11:30:33;17.00;99.90
54192;DHT22;40101;53.002;6.488;2023-04-16T11:33:15;17.00;99.90
54192;DHT22;40101;53.002;6.488;2023-04-16T11:36:18;17.00;99.90
54192;DHT22;40101;53.002;6.488;2023-04-16T11:39:13;16.90;99.90
54192;DHT22;40101;53.002;6.488;2023-04-16T11:41:47;16.80;99.90
54192;DHT22;40101;53.002;6.488;2023-04-16T11:48:15;16.60;99.90
54192;DHT22;40101;53.002;6.488;2023-04-16T11:51:48;16.60;99.90
54192;DHT22;40101;53.002;6.488;2023-04-16T11:54:48;16.60;99.90
54192;DHT22;40101;53.002;6.488;2023-04-16T12:04:25;16.80;99.90
54192;DHT22;40101;53.002;6.488;2023-04-16T12:07:25;17.10;99.90
54192;DHT22;40101;53.002;6.488;2023-04-16T12:10:34;17.30;99.90
54192;DHT22;40101;53.002;6.488;2023-04-16T12:13:25;17.20;99.90
54192;DHT22;40101;53.002;6.488;2023-04-16T12:16:30;17.30;99.90
54192;DHT22;40101;53.002;6.488;2023-04-16T12:23:07;17.40;99.90
54192;DHT22;40101;53.002;6.488;2023-04-16T12:25:46;17.30;99.90
54192;DHT22;40101;53.002;6.488;2023-04-16T12:31:21;17.50;99.90
54192;DHT22;40101;53.002;6.488;2023-04-16T12:34:23;17.60;99.90
54192;DHT22;40101;53.002;6.488;2023-04-16T12:37:22;17.70;99.90
54192;DHT22;40101;53.002;6.488;2023-04-16T12:44:00;17.60;99.90
54192;DHT22;40101;53.002;6.488;2023-04-16T12:46:52;17.40;99.90
54192;DHT22;40101;53.002;6.488;2023-04-16T12:52:26;17.30;99.90
54192;DHT22;40101;53.002;6.488;2023-04-16T12:54:52;17.20;99.90
54192;DHT22;40101;53.002;6.488;2023-04-16T12:57:18;17.20;99.90
54192;DHT22;40101;53.002;6.488;2023-04-16T12:59:44;17.20;99.90
54192;DHT22;40101;53.002;6.488;2023-04-16T13:02:11;17.10;99.90
54192;DHT22;40101;53.002;6.488;2023-04-16T13:04:37;17.10;99.90
54192;DHT22;40101;53.002;6.488;2023-04-16T13:07:04;17.10;99.90
54192;DHT22;40101;53.002;6.488;2023-04-16T13:09:32;17.10;99.90
54192;DHT22;40101;53.002;6.488;2023-04-16T13:22:05;16.90;99.90
54192;DHT22;40101;53.002;6.488;2023-04-16T14:01:59;16.70;99.90
54192;DHT22;40101;53.002;6.488;2023-04-16T14:04:47;16.60;99.90
54192;DHT22;40101;53.002;6.488;2023-04-16T14:07:51;16.50;99.90
54192;DHT22;40101;53.002;6.488;2023-04-16T14:13:55;16.40;99.90
54192;DHT22;40101;53.002;6.488;2023-04-16T14:16:22;16.30;99.90
54192;DHT22;40101;53.002;6.488;2023-04-16T14:18:47;16.30;99.90
54192;DHT22;40101;53.002;6.488;2023-04-16T14:21:16;16.30;99.90
54192;DHT22;40101;53.002;6.488;2023-04-16T14:24:11;16.30;99.90
54192;DHT22;40101;53.002;6.488;2023-04-16T14:26:45;16.40;99.90
54192;DHT22;40101;53.002;6.488;2023-04-16T14:29:13;16.30;99.90
54192;DHT22;40101;53.002;6.488;2023-04-16T14:31:39;16.20;99.90
54192;DHT22;40101;53.002;6.488;2023-04-16T14:34:04;16.20;99.90
54192;DHT22;40101;53.002;6.488;2023-04-16T14:36:33;16.30;99.90
54192;DHT22;40101;53.002;6.488;2023-04-16T14:39:14;16.20;99.90
54192;DHT22;40101;53.002;6.488;2023-04-16T14:45:30;16.10;99.90
54192;DHT22;40101;53.002;6.488;2023-04-16T14:52:23;15.90;99.90
54192;DHT22;40101;53.002;6.488;2023-04-16T14:55:12;15.90;99.90
54192;DHT22;40101;53.002;6.488;2023-04-16T14:57:41;15.80;99.90
54192;DHT22;40101;53.002;6.488;2023-04-16T15:00:07;15.80;99.90
54192;DHT22;40101;53.002;6.488;2023-04-16T15:02:35;15.90;99.90
54192;DHT22;40101;53.002;6.488;2023-04-16T15:05:01;16.00;99.90
54192;DHT22;40101;53.002;6.488;2023-04-16T15:07:36;16.00;99.90
54192;DHT22;40101;53.002;6.488;2023-04-16T15:10:02;16.10;99.90
54192;DHT22;40101;53.002;6.488;2023-04-16T15:16:49;16.00;99.90
54192;DHT22;40101;53.002;6.488;2023-04-16T15:19:18;15.90;99.90
54192;DHT22;40101;53.002;6.488;2023-04-16T15:21:47;15.80;99.90
54192;DHT22;40101;53.002;6.488;2023-04-16T15:24:12;15.80;99.90
54192;DHT22;40101;53.002;6.488;2023-04-16T15:26:49;15.80;99.90
54192;DHT22;40101;53.002;6.488;2023-04-16T15:29:15;15.80;99.90
54192;DHT22;40101;53.002;6.488;2023-04-16T15:42:43;15.80;99.90
54192;DHT22;40101;53.002;6.488;2023-04-16T15:45:13;15.50;99.90
54192;DHT22;40101;53.002;6.488;2023-04-16T15:54:23;15.20;99.90
54192;DHT22;40101;53.002;6.488;2023-04-16T15:56:58;15.20;99.90
54192;DHT22;40101;53.002;6.488;2023-04-16T15:59:44;15.10;99.90
54192;DHT22;40101;53.002;6.488;2023-04-16T16:02:25;15.00;99.90
54192;DHT22;40101;53.002;6.488;2023-04-16T16:04:51;14.90;99.90
54192;DHT22;40101;53.002;6.488;2023-04-16T16:07:17;14.80;99.90
54192;DHT22;40101;53.002;6.488;2023-04-16T16:09:44;14.80;99.90
54192;DHT22;40101;53.002;6.488;2023-04-16T16:12:12;14.70;99.90
54192;DHT22;40101;53.002;6.488;2023-04-16T16:14:38;14.70;99.90
54192;DHT22;40101;53.002;6.488;2023-04-16T16:17:04;14.60;99.90
54192;DHT22;40101;53.002;6.488;2023-04-16T16:19:31;14.60;99.90
54192;DHT22;40101;53.002;6.488;2023-04-16T16:21:57;14.40;99.90
54192;DHT22;40101;53.002;6.488;2023-04-16T16:24:22;14.40;99.90
54192;DHT22;40101;53.002;6.488;2023-04-16T16:26:48;14.30;99.90
54192;DHT22;40101;53.002;6.488;2023-04-16T16:29:14;14.20;99.90
54192;DHT22;40101;53.002;6.488;2023-04-16T16:31:40;14.10;99.90
54192;DHT22;40101;53.002;6.488;2023-04-16T16:34:06;14.00;99.90
54192;DHT22;40101;53.002;6.488;2023-04-16T16:36:32;13.80;99.90
54192;DHT22;40101;53.002;6.488;2023-04-16T16:39:11;13.70;99.90
54192;DHT22;40101;53.002;6.488;2023-04-16T16:42:01;13.60;99.90
54192;DHT22;40101;53.002;6.488;2023-04-16T16:45:33;13.40;99.90
54192;DHT22;40101;53.002;6.488;2023-04-16T16:52:46;13.10;99.90
54192;DHT22;40101;53.002;6.488;2023-04-16T16:59:29;12.90;99.90
54192;DHT22;40101;53.002;6.488;2023-04-16T17:01:54;12.80;99.90
54192;DHT22;40101;53.002;6.488;2023-04-16T17:04:23;12.80;99.90
54192;DHT22;40101;53.002;6.488;2023-04-16T17:07:00;12.60;99.90
54192;DHT22;40101;53.002;6.488;2023-04-16T17:09:30;12.50;99.90
54192;DHT22;40101;53.002;6.488;2023-04-16T17:12:04;12.40;99.90
54192;DHT22;40101;53.002;6.488;2023-04-16T17:14:31;12.30;99.90
54192;DHT22;40101;53.002;6.488;2023-04-16T17:16:57;12.30;99.90
54192;DHT22;40101;53.002;6.488;2023-04-16T17:19:23;12.30;99.90
54192;DHT22;40101;53.002;6.488;2023-04-16T17:21:52;12.20;99.90
54192;DHT22;40101;53.002;6.488;2023-04-16T17:28:25;12.10;99.90
54192;DHT22;40101;53.002;6.488;2023-04-16T17:31:18;11.90;99.90
54192;DHT22;40101;53.002;6.488;2023-04-16T17:33:55;11.80;99.90
54192;DHT22;40101;53.002;6.488;2023-04-16T17:36:43;11.70;99.90
54192;DHT22;40101;53.002;6.488;2023-04-16T17:39:11;11.70;99.90
54192;DHT22;40101;53.002;6.488;2023-04-16T17:41:43;11.70;99.90
54192;DHT22;40101;53.002;6.488;2023-04-16T17:44:28;11.70;99.90
54192;DHT22;40101;53.002;6.488;2023-04-16T17:54:45;11.40;99.90
54192;DHT22;40101;53.002;6.488;2023-04-16T17:57:46;11.30;99.90
54192;DHT22;40101;53.002;6.488;2023-04-16T18:01:18;11.20;99.90
54192;DHT22;40101;53.002;6.488;2023-04-16T19:06:56;9.90;99.90
54192;DHT22;40101;53.002;6.488;2023-04-16T19:09:23;9.90;99.90
54192;DHT22;40101;53.002;6.488;2023-04-16T19:11:49;9.80;99.90
54192;DHT22;40101;53.002;6.488;2023-04-16T19:14:14;9.90;99.90
54192;DHT22;40101;53.002;6.488;2023-04-16T19:16:40;9.80;99.90
54192;DHT22;40101;53.002;6.488;2023-04-16T19:19:06;9.80;99.90
54192;DHT22;40101;53.002;6.488;2023-04-16T19:21:32;9.70;99.90
54192;DHT22;40101;53.002;6.488;2023-04-16T19:23:58;9.70;99.90
54192;DHT22;40101;53.002;6.488;2023-04-16T19:26:23;9.60;99.90
54192;DHT22;40101;53.002;6.488;2023-04-16T19:28:49;9.60;99.90
54192;DHT22;40101;53.002;6.488;2023-04-16T19:31:14;9.60;99.90
54192;DHT22;40101;53.002;6.488;2023-04-16T19:33:52;9.60;99.90
54192;DHT22;40101;53.002;6.488;2023-04-16T19:36:18;9.60;99.90
54192;DHT22;40101;53.002;6.488;2023-04-16T19:42:07;9.50;99.90
54192;DHT22;40101;53.002;6.488;2023-04-16T19:44:40;9.50;99.90
54192;DHT22;40101;53.002;6.488;2023-04-16T19:47:12;9.60;99.90
54192;DHT22;40101;53.002;6.488;2023-04-16T19:49:58;9.60;99.90
54192;DHT22;40101;53.002;6.488;2023-04-16T19:52:29;9.60;99.90
54192;DHT22;40101;53.002;6.488;2023-04-16T19:54:55;9.60;99.90
54192;DHT22;40101;53.002;6.488;2023-04-16T20:01:19;9.40;99.90
54192;DHT22;40101;53.002;6.488;2023-04-16T20:07:47;9.40;99.90
54192;DHT22;40101;53.002;6.488;2023-04-16T20:10:13;9.30;99.90
54192;DHT22;40101;53.002;6.488;2023-04-16T20:12:38;9.30;99.90
54192;DHT22;40101;53.002;6.488;2023-04-16T20:15:04;9.30;99.90
54192;DHT22;40101;53.002;6.488;2023-04-16T20:17:38;9.20;99.90
54192;DHT22;40101;53.002;6.488;2023-04-16T20:20:13;9.20;99.90
54192;DHT22;40101;53.002;6.488;2023-04-16T20:26:54;9.10;99.90
54192;DHT22;40101;53.002;6.488;2023-04-16T20:29:34;9.10;99.90
54192;DHT22;40101;53.002;6.488;2023-04-16T20:32:06;9.10;99.90
54192;DHT22;40101;53.002;6.488;2023-04-16T20:34:32;9.10;99.90
54192;DHT22;40101;53.002;6.488;2023-04-16T20:36:57;9.10;99.90
54192;DHT22;40101;53.002;6.488;2023-04-16T20:39:23;9.10;99.90
54192;DHT22;40101;53.002;6.488;2023-04-16T20:41:55;9.00;99.90
54192;DHT22;40101;53.002;6.488;2023-04-16T20:44:30;9.00;99.90
54192;DHT22;40101;53.002;6.488;2023-04-16T20:47:08;9.00;99.90
54192;DHT22;40101;53.002;6.488;2023-04-16T20:50:20;9.00;99.90
54192;DHT22;40101;53.002;6.488;2023-04-16T20:53:09;9.00;99.90